Takamine — 7JKK — position and weather

sailwx.info

Track history (hours):
 
Tides and Currents Weather Stations Pressure Air Temp Water Temp Dewpoint Dewpoint Depression Visibility Wind Speed Wind Dir Waves Ship Positions

Takamine

Last reported at 2017-Mar-25 04:31 UTC. Time now 2017-Mar-29 09:21 UTC.
Position N 34°60' E 139°40'.

Length 333 m; draft 10.2 m.

Type: Tanker. MMSI: 432832000.

Date/timePositionNaut miles runAvg speedWind from/ knotsBaromVisibWave heightAir tempDewpointWater temp
2017-Mar-25 04:31N 34°60' E 139°40'1212.2
2017-Mar-25 03:33N 35°10' E 139°46'1111.4
2017-Mar-25 02:33N 35°21' E 139°42'1312.5
2017-Mar-25 01:33N 35°30' E 139°53'2 2.3
2017-Mar-25 00:30N 35°31' E 139°56'0 0.0
2017-Mar-24 23:33N 35°31' E 139°56'0 0.0
2017-Mar-24 22:30N 35°31' E 139°56'0 0.0
2017-Mar-24 21:30N 35°31' E 139°56'0 0.0
2017-Mar-24 20:27N 35°31' E 139°56'0 0.0
2017-Mar-24 19:33N 35°31' E 139°56'0 0.0
2017-Mar-24 18:33N 35°31' E 139°56'0 0.0
2017-Mar-24 17:33N 35°31' E 139°56'0 0.0
2017-Mar-24 16:33N 35°31' E 139°56'0 0.0
2017-Mar-24 15:33N 35°31' E 139°56'0 0.0
2017-Mar-24 14:27N 35°31' E 139°56'0 0.0
2017-Mar-24 11:05N 35°31' E 139°56'0 0.0
2017-Mar-24 10:20N 35°31' E 139°56'0 0.0
2017-Mar-24 09:33N 35°31' E 139°56'0 0.0
2017-Mar-24 08:12N 35°31' E 139°56'0 0.0
2017-Mar-23 22:23N 35°31' E 139°56'0 0.0
2017-Mar-23 09:14N 35°31' E 139°56'0 0.0
2017-Mar-23 08:17N 35°31' E 139°56'0 0.0
2017-Mar-23 07:17N 35°31' E 139°56'0 0.0
2017-Mar-23 06:29N 35°31' E 139°56'0 0.0
2017-Mar-23 05:29N 35°31' E 139°56'0 0.0
2017-Mar-23 04:32N 35°31' E 139°56'0 0.0
2017-Mar-23 03:08N 35°31' E 139°56'0 0.2
2017-Mar-23 02:33N 35°31' E 139°56'3 3.2
2017-Mar-23 01:33N 35°29' E 139°53'10 9.7
2017-Mar-23 00:33N 35°22' E 139°45'1010.2
2017-Mar-22 23:33N 35°11' E 139°47'9 9.1
2017-Mar-22 22:33N 35°03' E 139°44'  
Track history (hours):
 
Tides and Currents Weather Stations Pressure Air Temp Water Temp Dewpoint Dewpoint Depression Visibility Wind Speed Wind Dir Waves Ship Positions

Takamine

Last reported at 2017-Mar-25 04:31 UTC. Time now 2017-Mar-29 09:21 UTC.
Position N 34°60' E 139°40'.

Length 333 m; draft 10.2 m.

Type: Tanker. MMSI: 432832000.

Date/timePositionNaut miles runAvg speedWind from/ knotsBaromVisibWave heightAir tempDewpointWater temp
2017-Mar-25 04:31N 34°60' E 139°40'1212.2
2017-Mar-25 03:33N 35°10' E 139°46'1111.4
2017-Mar-25 02:33N 35°21' E 139°42'1312.5
2017-Mar-25 01:33N 35°30' E 139°53'2 2.3
2017-Mar-25 00:30N 35°31' E 139°56'0 0.0
2017-Mar-24 23:33N 35°31' E 139°56'0 0.0
2017-Mar-24 22:30N 35°31' E 139°56'0 0.0
2017-Mar-24 21:30N 35°31' E 139°56'0 0.0
2017-Mar-24 20:27N 35°31' E 139°56'0 0.0
2017-Mar-24 19:33N 35°31' E 139°56'0 0.0
2017-Mar-24 18:33N 35°31' E 139°56'0 0.0
2017-Mar-24 17:33N 35°31' E 139°56'0 0.0
2017-Mar-24 16:33N 35°31' E 139°56'0 0.0
2017-Mar-24 15:33N 35°31' E 139°56'0 0.0
2017-Mar-24 14:27N 35°31' E 139°56'0 0.0
2017-Mar-24 11:05N 35°31' E 139°56'0 0.0
2017-Mar-24 10:20N 35°31' E 139°56'0 0.0
2017-Mar-24 09:33N 35°31' E 139°56'0 0.0
2017-Mar-24 08:12N 35°31' E 139°56'0 0.0
2017-Mar-23 22:23N 35°31' E 139°56'0 0.0
2017-Mar-23 09:14N 35°31' E 139°56'0 0.0
2017-Mar-23 08:17N 35°31' E 139°56'0 0.0
2017-Mar-23 07:17N 35°31' E 139°56'0 0.0
2017-Mar-23 06:29N 35°31' E 139°56'0 0.0
2017-Mar-23 05:29N 35°31' E 139°56'0 0.0
2017-Mar-23 04:32N 35°31' E 139°56'0 0.0
2017-Mar-23 03:08N 35°31' E 139°56'0 0.2
2017-Mar-23 02:33N 35°31' E 139°56'3 3.2
2017-Mar-23 01:33N 35°29' E 139°53'10 9.7
2017-Mar-23 00:33N 35°22' E 139°45'1010.2
2017-Mar-22 23:33N 35°11' E 139°47'9 9.1
2017-Mar-22 22:33N 35°03' E 139°44'  

Dump ship's entire track history